Dati Storici

Data ora Umidita' aria (%) Temperatura aria (°C) Rad globale (W/m²) Gonioanemometro (°) Tacoanemometro (m/s) Pioggia (mm)
31-10-2012 12:50 57.5 % 11.511 193.26 21.848 2.066 0
31-10-2012 12:40 56.1 % 11.532 359.415 35.741 7.211 0
31-10-2012 12:30 56.3 % 11.648 355.067 86.626 2.508 0
31-10-2012 12:20 56.7 % 11.563 340.16 42.989 2.508 0
31-10-2012 12:10 58.1 % 11.094 274.303 32.965 1.413 0
31-10-2012 12:00 57.5 % 11.025 242.712 44.455 4.537 0
31-10-2012 11:50 56.6 % 10.834 293.592 5.528 4.684 0
31-10-2012 11:40 56.3 % 10.96 253.234 227.576 2.663 0
31-10-2012 11:30 55.6 % 10.748 302.668 25.649 4.477 0
31-10-2012 11:20 54.3 % 10.57 338.316 19.549 5.038 0
31-10-2012 11:10 56.3 % 10.778 359.804 30.355 2.838 0
31-10-2012 11:00 57.1 % 10.271 281.545 16.113 3.342 0
31-10-2012 10:50 57.3 % 10.016 383.804 17.356 4.145 0
31-10-2012 10:40 60.1 % 9.538 343.908 42.478 3.987 0
31-10-2012 10:30 61.1 % 9.574 163.382 52.042 1.943 0
31-10-2012 10:20 61.6 % 9.322 416.837 20.221 5.553 0
31-10-2012 10:10 65 % 8.959 278.858 354.902 2.079 0
31-10-2012 10:00 66.7 % 8.629 216.252 20.242 2.014 0
31-10-2012 09:50 67.9 % 8.224 192.24 10.568 3.44 0
31-10-2012 09:40 69.1 % 7.91 255.757 329.676 2.573 0

I dati sono presentati in modo automatico a scopo informativo. In seguito a verifica i dati possono subire modifiche o essere invalidati e non riportati negli archivi definitivi.